sensor_id;sensor_type;location;lat;lon;timestamp;P1;durP1;ratioP1;P2;durP2;ratioP2
3613;SDS011;1821;50.936;6.854;2023-08-20T00:00:04;7.28;;;6.15;;
3613;SDS011;1821;50.936;6.854;2023-08-20T00:00:48;8.23;;;6.50;;
3613;SDS011;1821;50.936;6.854;2023-08-20T00:01:32;8.50;;;7.20;;
3613;SDS011;1821;50.936;6.854;2023-08-20T00:02:15;7.90;;;7.07;;
3613;SDS011;1821;50.936;6.854;2023-08-20T00:03:09;7.82;;;6.85;;
3613;SDS011;1821;50.936;6.854;2023-08-20T00:03:53;8.05;;;6.70;;
3613;SDS011;1821;50.936;6.854;2023-08-20T00:04:36;8.30;;;6.90;;
3613;SDS011;1821;50.936;6.854;2023-08-20T00:05:20;8.05;;;6.93;;
3613;SDS011;1821;50.936;6.854;2023-08-20T00:06:03;8.20;;;6.80;;
3613;SDS011;1821;50.936;6.854;2023-08-20T00:06:47;8.00;;;7.20;;
3613;SDS011;1821;50.936;6.854;2023-08-20T00:07:30;8.27;;;6.70;;
3613;SDS011;1821;50.936;6.854;2023-08-20T00:08:13;9.05;;;7.20;;
3613;SDS011;1821;50.936;6.854;2023-08-20T00:08:55;8.27;;;6.93;;
3613;SDS011;1821;50.936;6.854;2023-08-20T00:09:37;8.20;;;6.53;;
3613;SDS011;1821;50.936;6.854;2023-08-20T00:10:19;8.20;;;6.47;;
3613;SDS011;1821;50.936;6.854;2023-08-20T00:11:01;8.00;;;6.60;;
3613;SDS011;1821;50.936;6.854;2023-08-20T00:11:43;7.38;;;6.68;;
3613;SDS011;1821;50.936;6.854;2023-08-20T00:12:25;8.00;;;7.20;;
3613;SDS011;1821;50.936;6.854;2023-08-20T00:13:07;9.65;;;7.20;;
3613;SDS011;1821;50.936;6.854;2023-08-20T00:13:49;9.18;;;7.07;;
3613;SDS011;1821;50.936;6.854;2023-08-20T00:15:36;9.00;;;7.18;;
3613;SDS011;1821;50.936;6.854;2023-08-20T00:16:18;8.07;;;7.28;;
3613;SDS011;1821;50.936;6.854;2023-08-20T00:17:00;8.10;;;7.30;;
3613;SDS011;1821;50.936;6.854;2023-08-20T00:17:43;8.70;;;6.63;;
3613;SDS011;1821;50.936;6.854;2023-08-20T00:18:27;8.70;;;7.45;;
3613;SDS011;1821;50.936;6.854;2023-08-20T00:19:10;9.55;;;7.30;;
3613;SDS011;1821;50.936;6.854;2023-08-20T00:19:53;10.83;;;7.70;;
3613;SDS011;1821;50.936;6.854;2023-08-20T00:20:36;9.98;;;7.00;;
3613;SDS011;1821;50.936;6.854;2023-08-20T00:21:18;10.90;;;6.90;;
3613;SDS011;1821;50.936;6.854;2023-08-20T00:22:02;8.60;;;6.85;;
3613;SDS011;1821;50.936;6.854;2023-08-20T00:22:44;9.30;;;6.90;;
3613;SDS011;1821;50.936;6.854;2023-08-20T00:23:27;8.60;;;6.90;;
3613;SDS011;1821;50.936;6.854;2023-08-20T00:24:10;8.30;;;6.93;;
3613;SDS011;1821;50.936;6.854;2023-08-20T00:24:53;9.88;;;7.10;;
3613;SDS011;1821;50.936;6.854;2023-08-20T00:25:36;7.97;;;7.18;;
3613;SDS011;1821;50.936;6.854;2023-08-20T00:26:20;7.18;;;6.47;;
3613;SDS011;1821;50.936;6.854;2023-08-20T00:27:02;7.63;;;6.83;;
3613;SDS011;1821;50.936;6.854;2023-08-20T00:27:44;9.07;;;6.38;;
3613;SDS011;1821;50.936;6.854;2023-08-20T00:28:26;11.38;;;7.25;;
3613;SDS011;1821;50.936;6.854;2023-08-20T00:29:08;9.63;;;7.20;;
3613;SDS011;1821;50.936;6.854;2023-08-20T00:29:50;9.13;;;6.75;;
3613;SDS011;1821;50.936;6.854;2023-08-20T00:30:34;9.70;;;6.80;;
3613;SDS011;1821;50.936;6.854;2023-08-20T00:31:16;8.60;;;7.03;;
3613;SDS011;1821;50.936;6.854;2023-08-20T00:31:58;8.30;;;7.00;;
3613;SDS011;1821;50.936;6.854;2023-08-20T00:32:40;7.10;;;6.40;;
3613;SDS011;1821;50.936;6.854;2023-08-20T00:33:23;7.85;;;6.88;;
3613;SDS011;1821;50.936;6.854;2023-08-20T00:34:07;9.35;;;7.20;;
3613;SDS011;1821;50.936;6.854;2023-08-20T00:34:49;9.20;;;7.22;;
3613;SDS011;1821;50.936;6.854;2023-08-20T00:35:33;10.70;;;7.20;;
3613;SDS011;1821;50.936;6.854;2023-08-20T00:36:17;8.20;;;7.10;;
3613;SDS011;1821;50.936;6.854;2023-08-20T00:36:59;8.40;;;6.72;;
3613;SDS011;1821;50.936;6.854;2023-08-20T00:37:42;8.55;;;7.00;;
3613;SDS011;1821;50.936;6.854;2023-08-20T00:38:25;9.73;;;7.40;;
3613;SDS011;1821;50.936;6.854;2023-08-20T00:39:07;10.85;;;6.82;;
3613;SDS011;1821;50.936;6.854;2023-08-20T00:39:49;8.70;;;6.50;;
3613;SDS011;1821;50.936;6.854;2023-08-20T00:40:33;7.43;;;6.72;;
3613;SDS011;1821;50.936;6.854;2023-08-20T00:41:17;7.35;;;6.55;;
3613;SDS011;1821;50.936;6.854;2023-08-20T00:42:00;8.77;;;7.00;;
3613;SDS011;1821;50.936;6.854;2023-08-20T00:42:42;8.32;;;6.43;;
3613;SDS011;1821;50.936;6.854;2023-08-20T00:43:24;9.45;;;7.05;;
3613;SDS011;1821;50.936;6.854;2023-08-20T00:44:06;9.18;;;6.53;;
3613;SDS011;1821;50.936;6.854;2023-08-20T00:44:48;7.50;;;6.70;;
3613;SDS011;1821;50.936;6.854;2023-08-20T00:45:30;8.38;;;7.13;;
3613;SDS011;1821;50.936;6.854;2023-08-20T00:46:12;9.23;;;7.65;;
3613;SDS011;1821;50.936;6.854;2023-08-20T00:46:54;8.27;;;7.00;;
3613;SDS011;1821;50.936;6.854;2023-08-20T00:47:36;7.90;;;7.00;;
3613;SDS011;1821;50.936;6.854;2023-08-20T00:48:21;7.93;;;7.13;;
3613;SDS011;1821;50.936;6.854;2023-08-20T00:49:03;10.25;;;7.03;;
3613;SDS011;1821;50.936;6.854;2023-08-20T00:49:48;8.93;;;6.70;;
3613;SDS011;1821;50.936;6.854;2023-08-20T00:50:30;8.60;;;7.18;;
3613;SDS011;1821;50.936;6.854;2023-08-20T00:51:12;8.50;;;6.80;;
3613;SDS011;1821;50.936;6.854;2023-08-20T00:51:54;8.18;;;6.70;;
3613;SDS011;1821;50.936;6.854;2023-08-20T00:52:39;9.00;;;7.30;;
3613;SDS011;1821;50.936;6.854;2023-08-20T00:53:22;8.32;;;6.85;;
3613;SDS011;1821;50.936;6.854;2023-08-20T00:54:04;9.20;;;6.80;;
3613;SDS011;1821;50.936;6.854;2023-08-20T00:54:47;9.35;;;7.00;;
3613;SDS011;1821;50.936;6.854;2023-08-20T00:55:29;7.20;;;6.50;;
3613;SDS011;1821;50.936;6.854;2023-08-20T00:56:11;7.53;;;6.72;;
3613;SDS011;1821;50.936;6.854;2023-08-20T00:56:53;8.35;;;6.90;;
3613;SDS011;1821;50.936;6.854;2023-08-20T00:57:38;8.10;;;6.40;;
3613;SDS011;1821;50.936;6.854;2023-08-20T00:58:21;8.95;;;6.80;;
3613;SDS011;1821;50.936;6.854;2023-08-20T00:59:04;7.72;;;6.93;;
3613;SDS011;1821;50.936;6.854;2023-08-20T00:59:47;9.80;;;7.07;;
3613;SDS011;1821;50.936;6.854;2023-08-20T01:00:32;8.43;;;6.50;;
3613;SDS011;1821;50.936;6.854;2023-08-20T01:01:14;8.00;;;6.95;;
3613;SDS011;1821;50.936;6.854;2023-08-20T01:01:56;7.68;;;6.82;;
3613;SDS011;1821;50.936;6.854;2023-08-20T01:02:39;9.30;;;6.78;;
3613;SDS011;1821;50.936;6.854;2023-08-20T01:03:22;9.95;;;6.95;;
3613;SDS011;1821;50.936;6.854;2023-08-20T01:04:04;11.00;;;7.20;;
3613;SDS011;1821;50.936;6.854;2023-08-20T01:04:46;9.10;;;7.30;;
3613;SDS011;1821;50.936;6.854;2023-08-20T01:05:31;8.57;;;7.00;;
3613;SDS011;1821;50.936;6.854;2023-08-20T01:08:41;7.80;;;6.72;;
3613;SDS011;1821;50.936;6.854;2023-08-20T01:11:35;9.38;;;7.10;;
3613;SDS011;1821;50.936;6.854;2023-08-20T01:12:06;7.85;;;6.53;;
3613;SDS011;1821;50.936;6.854;2023-08-20T01:12:48;8.93;;;6.70;;
3613;SDS011;1821;50.936;6.854;2023-08-20T01:13:31;9.98;;;6.97;;
3613;SDS011;1821;50.936;6.854;2023-08-20T01:14:16;10.68;;;7.15;;
3613;SDS011;1821;50.936;6.854;2023-08-20T01:14:58;8.57;;;7.40;;
3613;SDS011;1821;50.936;6.854;2023-08-20T01:15:40;7.55;;;6.53;;
3613;SDS011;1821;50.936;6.854;2023-08-20T01:16:22;8.75;;;7.00;;
3613;SDS011;1821;50.936;6.854;2023-08-20T01:17:04;8.38;;;6.78;;
3613;SDS011;1821;50.936;6.854;2023-08-20T01:17:48;9.32;;;7.28;;
3613;SDS011;1821;50.936;6.854;2023-08-20T01:18:30;8.68;;;6.95;;
3613;SDS011;1821;50.936;6.854;2023-08-20T01:19:15;8.60;;;7.50;;
3613;SDS011;1821;50.936;6.854;2023-08-20T01:19:59;7.70;;;6.85;;
3613;SDS011;1821;50.936;6.854;2023-08-20T01:20:55;9.00;;;6.40;;
3613;SDS011;1821;50.936;6.854;2023-08-20T01:21:53;8.70;;;7.20;;
3613;SDS011;1821;50.936;6.854;2023-08-20T01:23:56;8.98;;;7.03;;
3613;SDS011;1821;50.936;6.854;2023-08-20T01:24:57;7.82;;;6.70;;
3613;SDS011;1821;50.936;6.854;2023-08-20T01:26:56;9.20;;;6.85;;
3613;SDS011;1821;50.936;6.854;2023-08-20T01:29:11;10.88;;;7.00;;
3613;SDS011;1821;50.936;6.854;2023-08-20T01:29:54;8.50;;;7.13;;
3613;SDS011;1821;50.936;6.854;2023-08-20T01:30:38;9.00;;;6.70;;
3613;SDS011;1821;50.936;6.854;2023-08-20T01:31:23;7.07;;;6.38;;
3613;SDS011;1821;50.936;6.854;2023-08-20T01:32:07;7.70;;;6.85;;
3613;SDS011;1821;50.936;6.854;2023-08-20T01:32:50;7.70;;;6.60;;
3613;SDS011;1821;50.936;6.854;2023-08-20T01:33:36;9.70;;;7.05;;
3613;SDS011;1821;50.936;6.854;2023-08-20T01:34:18;10.60;;;7.07;;
3613;SDS011;1821;50.936;6.854;2023-08-20T01:35:00;9.23;;;6.50;;
3613;SDS011;1821;50.936;6.854;2023-08-20T01:35:43;7.78;;;6.70;;
3613;SDS011;1821;50.936;6.854;2023-08-20T01:36:25;8.40;;;6.78;;
3613;SDS011;1821;50.936;6.854;2023-08-20T01:37:07;8.90;;;7.50;;
3613;SDS011;1821;50.936;6.854;2023-08-20T01:37:49;8.73;;;7.32;;
3613;SDS011;1821;50.936;6.854;2023-08-20T01:38:31;8.02;;;7.22;;
3613;SDS011;1821;50.936;6.854;2023-08-20T01:39:15;8.57;;;7.68;;
3613;SDS011;1821;50.936;6.854;2023-08-20T01:39:58;8.48;;;6.75;;
3613;SDS011;1821;50.936;6.854;2023-08-20T01:40:40;7.72;;;6.93;;
3613;SDS011;1821;50.936;6.854;2023-08-20T01:41:22;9.63;;;6.90;;
3613;SDS011;1821;50.936;6.854;2023-08-20T01:42:06;9.20;;;7.20;;
3613;SDS011;1821;50.936;6.854;2023-08-20T01:42:48;7.68;;;6.85;;
3613;SDS011;1821;50.936;6.854;2023-08-20T01:43:30;7.88;;;6.70;;
3613;SDS011;1821;50.936;6.854;2023-08-20T01:44:12;7.00;;;6.30;;
3613;SDS011;1821;50.936;6.854;2023-08-20T01:44:55;9.00;;;7.00;;
3613;SDS011;1821;50.936;6.854;2023-08-20T01:45:37;8.80;;;6.70;;
3613;SDS011;1821;50.936;6.854;2023-08-20T01:46:19;8.32;;;7.35;;
3613;SDS011;1821;50.936;6.854;2023-08-20T01:47:01;8.90;;;7.40;;
3613;SDS011;1821;50.936;6.854;2023-08-20T01:47:43;10.05;;;7.40;;
3613;SDS011;1821;50.936;6.854;2023-08-20T01:48:25;8.88;;;7.47;;
3613;SDS011;1821;50.936;6.854;2023-08-20T01:49:07;7.63;;;6.85;;
3613;SDS011;1821;50.936;6.854;2023-08-20T01:49:49;10.27;;;6.85;;
3613;SDS011;1821;50.936;6.854;2023-08-20T01:50:32;9.70;;;7.28;;
3613;SDS011;1821;50.936;6.854;2023-08-20T01:51:16;7.63;;;6.82;;
3613;SDS011;1821;50.936;6.854;2023-08-20T01:51:58;12.63;;;7.35;;
3613;SDS011;1821;50.936;6.854;2023-08-20T01:52:39;13.43;;;7.30;;
3613;SDS011;1821;50.936;6.854;2023-08-20T01:53:21;10.77;;;7.30;;
3613;SDS011;1821;50.936;6.854;2023-08-20T01:54:03;8.73;;;6.88;;
3613;SDS011;1821;50.936;6.854;2023-08-20T01:54:45;8.43;;;7.37;;
3613;SDS011;1821;50.936;6.854;2023-08-20T01:55:29;8.98;;;7.50;;
3613;SDS011;1821;50.936;6.854;2023-08-20T01:56:13;9.00;;;7.75;;
3613;SDS011;1821;50.936;6.854;2023-08-20T01:56:58;11.82;;;7.57;;
3613;SDS011;1821;50.936;6.854;2023-08-20T01:57:40;11.77;;;8.18;;
3613;SDS011;1821;50.936;6.854;2023-08-20T01:58:22;8.48;;;6.80;;
3613;SDS011;1821;50.936;6.854;2023-08-20T01:59:04;8.98;;;7.13;;
3613;SDS011;1821;50.936;6.854;2023-08-20T01:59:47;9.25;;;7.72;;
3613;SDS011;1821;50.936;6.854;2023-08-20T02:00:29;8.30;;;7.40;;
3613;SDS011;1821;50.936;6.854;2023-08-20T02:01:12;9.57;;;6.82;;
3613;SDS011;1821;50.936;6.854;2023-08-20T02:01:54;9.10;;;7.00;;
3613;SDS011;1821;50.936;6.854;2023-08-20T02:02:36;10.32;;;7.40;;
3613;SDS011;1821;50.936;6.854;2023-08-20T02:03:18;11.55;;;7.40;;
3613;SDS011;1821;50.936;6.854;2023-08-20T02:04:00;10.05;;;7.53;;
3613;SDS011;1821;50.936;6.854;2023-08-20T02:04:43;10.75;;;7.55;;
3613;SDS011;1821;50.936;6.854;2023-08-20T02:05:25;9.07;;;7.32;;
3613;SDS011;1821;50.936;6.854;2023-08-20T02:06:07;9.60;;;7.00;;
3613;SDS011;1821;50.936;6.854;2023-08-20T02:06:49;10.77;;;7.40;;
3613;SDS011;1821;50.936;6.854;2023-08-20T02:07:31;8.57;;;7.50;;
3613;SDS011;1821;50.936;6.854;2023-08-20T02:08:14;8.95;;;7.20;;
3613;SDS011;1821;50.936;6.854;2023-08-20T02:08:58;8.30;;;7.00;;
3613;SDS011;1821;50.936;6.854;2023-08-20T02:09:42;8.77;;;7.03;;
3613;SDS011;1821;50.936;6.854;2023-08-20T02:10:24;9.77;;;7.32;;
3613;SDS011;1821;50.936;6.854;2023-08-20T02:11:06;11.10;;;7.95;;
3613;SDS011;1821;50.936;6.854;2023-08-20T02:11:48;11.23;;;7.75;;
3613;SDS011;1821;50.936;6.854;2023-08-20T02:12:32;9.07;;;7.25;;
3613;SDS011;1821;50.936;6.854;2023-08-20T02:13:14;7.95;;;6.80;;
3613;SDS011;1821;50.936;6.854;2023-08-20T02:13:56;8.60;;;6.70;;
3613;SDS011;1821;50.936;6.854;2023-08-20T02:14:38;8.57;;;7.30;;
3613;SDS011;1821;50.936;6.854;2023-08-20T02:15:20;9.27;;;7.80;;
3613;SDS011;1821;50.936;6.854;2023-08-20T02:16:03;11.00;;;8.27;;
3613;SDS011;1821;50.936;6.854;2023-08-20T02:16:46;9.48;;;8.00;;
3613;SDS011;1821;50.936;6.854;2023-08-20T02:17:28;10.15;;;7.72;;
3613;SDS011;1821;50.936;6.854;2023-08-20T02:18:10;8.45;;;7.05;;
3613;SDS011;1821;50.936;6.854;2023-08-20T02:18:52;8.20;;;7.35;;
3613;SDS011;1821;50.936;6.854;2023-08-20T02:19:34;8.88;;;7.60;;
3613;SDS011;1821;50.936;6.854;2023-08-20T02:20:16;10.57;;;8.20;;
3613;SDS011;1821;50.936;6.854;2023-08-20T02:20:59;10.30;;;8.65;;
3613;SDS011;1821;50.936;6.854;2023-08-20T02:21:41;9.20;;;7.90;;
3613;SDS011;1821;50.936;6.854;2023-08-20T02:22:23;12.82;;;7.95;;
3613;SDS011;1821;50.936;6.854;2023-08-20T02:23:05;8.80;;;7.75;;
3613;SDS011;1821;50.936;6.854;2023-08-20T02:23:49;10.00;;;7.57;;
3613;SDS011;1821;50.936;6.854;2023-08-20T02:24:33;10.30;;;7.45;;
3613;SDS011;1821;50.936;6.854;2023-08-20T02:25:17;8.05;;;7.00;;
3613;SDS011;1821;50.936;6.854;2023-08-20T02:25:59;8.23;;;7.10;;
3613;SDS011;1821;50.936;6.854;2023-08-20T02:26:42;9.50;;;7.85;;
3613;SDS011;1821;50.936;6.854;2023-08-20T02:27:24;9.13;;;7.80;;
3613;SDS011;1821;50.936;6.854;2023-08-20T02:28:06;9.68;;;7.45;;
3613;SDS011;1821;50.936;6.854;2023-08-20T02:28:48;9.13;;;6.90;;
3613;SDS011;1821;50.936;6.854;2023-08-20T02:29:30;8.48;;;7.03;;
3613;SDS011;1821;50.936;6.854;2023-08-20T02:30:12;9.90;;;7.82;;
3613;SDS011;1821;50.936;6.854;2023-08-20T02:30:57;7.85;;;7.05;;
3613;SDS011;1821;50.936;6.854;2023-08-20T02:31:39;9.25;;;7.07;;
3613;SDS011;1821;50.936;6.854;2023-08-20T02:32:20;9.30;;;7.82;;
3613;SDS011;1821;50.936;6.854;2023-08-20T02:33:02;8.30;;;7.25;;
3613;SDS011;1821;50.936;6.854;2023-08-20T02:33:44;9.57;;;6.90;;
3613;SDS011;1821;50.936;6.854;2023-08-20T02:34:26;10.32;;;7.18;;
3613;SDS011;1821;50.936;6.854;2023-08-20T02:35:08;8.55;;;7.50;;
3613;SDS011;1821;50.936;6.854;2023-08-20T02:35:50;9.20;;;7.40;;
3613;SDS011;1821;50.936;6.854;2023-08-20T02:36:32;8.75;;;7.85;;
3613;SDS011;1821;50.936;6.854;2023-08-20T02:37:14;9.68;;;8.02;;
3613;SDS011;1821;50.936;6.854;2023-08-20T02:37:58;9.50;;;8.50;;
3613;SDS011;1821;50.936;6.854;2023-08-20T02:38:40;10.73;;;8.10;;
3613;SDS011;1821;50.936;6.854;2023-08-20T02:39:22;10.85;;;7.88;;
3613;SDS011;1821;50.936;6.854;2023-08-20T02:40:07;9.95;;;8.13;;
3613;SDS011;1821;50.936;6.854;2023-08-20T02:40:49;9.20;;;7.72;;
3613;SDS011;1821;50.936;6.854;2023-08-20T02:41:31;10.32;;;7.95;;
3613;SDS011;1821;50.936;6.854;2023-08-20T02:42:13;10.90;;;8.13;;
3613;SDS011;1821;50.936;6.854;2023-08-20T02:42:57;11.30;;;7.80;;
3613;SDS011;1821;50.936;6.854;2023-08-20T02:43:39;10.20;;;7.90;;
3613;SDS011;1821;50.936;6.854;2023-08-20T02:44:22;13.45;;;8.00;;
3613;SDS011;1821;50.936;6.854;2023-08-20T02:45:04;11.50;;;8.23;;
3613;SDS011;1821;50.936;6.854;2023-08-20T02:45:46;9.82;;;7.78;;
3613;SDS011;1821;50.936;6.854;2023-08-20T02:46:28;10.30;;;7.57;;
3613;SDS011;1821;50.936;6.854;2023-08-20T02:47:11;9.15;;;7.60;;
3613;SDS011;1821;50.936;6.854;2023-08-20T02:47:52;9.77;;;7.20;;
3613;SDS011;1821;50.936;6.854;2023-08-20T02:48:34;11.95;;;8.52;;
3613;SDS011;1821;50.936;6.854;2023-08-20T02:49:16;15.98;;;8.50;;
3613;SDS011;1821;50.936;6.854;2023-08-20T02:49:58;9.20;;;7.65;;
3613;SDS011;1821;50.936;6.854;2023-08-20T02:50:40;9.15;;;7.32;;
3613;SDS011;1821;50.936;6.854;2023-08-20T02:51:22;9.27;;;8.38;;
3613;SDS011;1821;50.936;6.854;2023-08-20T02:52:04;10.70;;;8.13;;
3613;SDS011;1821;50.936;6.854;2023-08-20T02:52:46;7.97;;;7.18;;
3613;SDS011;1821;50.936;6.854;2023-08-20T02:53:28;7.90;;;7.13;;
3613;SDS011;1821;50.936;6.854;2023-08-20T02:54:10;8.55;;;7.72;;
3613;SDS011;1821;50.936;6.854;2023-08-20T02:54:52;9.82;;;7.90;;
3613;SDS011;1821;50.936;6.854;2023-08-20T02:55:34;12.48;;;8.60;;
3613;SDS011;1821;50.936;6.854;2023-08-20T02:56:16;9.60;;;7.60;;
3613;SDS011;1821;50.936;6.854;2023-08-20T02:56:59;8.82;;;7.32;;
3613;SDS011;1821;50.936;6.854;2023-08-20T02:57:41;8.00;;;7.20;;
3613;SDS011;1821;50.936;6.854;2023-08-20T02:58:22;8.55;;;7.65;;
3613;SDS011;1821;50.936;6.854;2023-08-20T02:59:04;10.77;;;8.43;;
3613;SDS011;1821;50.936;6.854;2023-08-20T02:59:46;9.18;;;8.13;;
3613;SDS011;1821;50.936;6.854;2023-08-20T03:00:28;8.98;;;8.07;;
3613;SDS011;1821;50.936;6.854;2023-08-20T03:01:20;10.30;;;8.23;;
3613;SDS011;1821;50.936;6.854;2023-08-20T03:02:03;12.55;;;8.93;;
3613;SDS011;1821;50.936;6.854;2023-08-20T03:02:45;10.63;;;8.80;;
3613;SDS011;1821;50.936;6.854;2023-08-20T03:03:29;10.80;;;8.30;;
3613;SDS011;1821;50.936;6.854;2023-08-20T03:04:11;10.95;;;8.57;;
3613;SDS011;1821;50.936;6.854;2023-08-20T03:04:53;13.23;;;9.38;;
3613;SDS011;1821;50.936;6.854;2023-08-20T03:05:37;11.40;;;9.13;;
3613;SDS011;1821;50.936;6.854;2023-08-20T03:06:19;11.30;;;8.70;;
3613;SDS011;1821;50.936;6.854;2023-08-20T03:07:03;9.65;;;8.50;;
3613;SDS011;1821;50.936;6.854;2023-08-20T03:07:46;11.57;;;8.60;;
3613;SDS011;1821;50.936;6.854;2023-08-20T03:08:28;12.80;;;8.68;;
3613;SDS011;1821;50.936;6.854;2023-08-20T03:09:10;11.02;;;8.80;;
3613;SDS011;1821;50.936;6.854;2023-08-20T03:09:52;9.95;;;8.88;;
3613;SDS011;1821;50.936;6.854;2023-08-20T03:10:34;10.48;;;9.38;;
3613;SDS011;1821;50.936;6.854;2023-08-20T03:11:18;10.10;;;9.00;;
3613;SDS011;1821;50.936;6.854;2023-08-20T03:12:01;11.82;;;9.18;;
3613;SDS011;1821;50.936;6.854;2023-08-20T03:12:43;11.95;;;8.80;;
3613;SDS011;1821;50.936;6.854;2023-08-20T03:13:25;10.02;;;9.00;;
3613;SDS011;1821;50.936;6.854;2023-08-20T03:14:07;10.50;;;9.15;;
3613;SDS011;1821;50.936;6.854;2023-08-20T03:14:49;12.40;;;9.30;;
3613;SDS011;1821;50.936;6.854;2023-08-20T03:15:31;12.00;;;9.00;;
3613;SDS011;1821;50.936;6.854;2023-08-20T03:16:12;9.77;;;8.18;;
3613;SDS011;1821;50.936;6.854;2023-08-20T03:16:54;8.57;;;7.68;;
3613;SDS011;1821;50.936;6.854;2023-08-20T03:17:36;11.70;;;8.35;;
3613;SDS011;1821;50.936;6.854;2023-08-20T03:18:19;13.05;;;8.80;;
3613;SDS011;1821;50.936;6.854;2023-08-20T03:19:01;11.60;;;8.35;;
3613;SDS011;1821;50.936;6.854;2023-08-20T03:19:53;11.93;;;8.68;;
3613;SDS011;1821;50.936;6.854;2023-08-20T03:20:39;10.60;;;8.00;;
3613;SDS011;1821;50.936;6.854;2023-08-20T03:21:21;10.70;;;7.90;;
3613;SDS011;1821;50.936;6.854;2023-08-20T03:22:03;11.90;;;8.00;;
3613;SDS011;1821;50.936;6.854;2023-08-20T03:22:45;11.57;;;8.15;;
3613;SDS011;1821;50.936;6.854;2023-08-20T03:23:27;10.27;;;8.95;;
3613;SDS011;1821;50.936;6.854;2023-08-20T03:24:09;9.32;;;8.32;;
3613;SDS011;1821;50.936;6.854;2023-08-20T03:24:51;10.02;;;8.13;;
3613;SDS011;1821;50.936;6.854;2023-08-20T03:25:33;12.10;;;8.77;;
3613;SDS011;1821;50.936;6.854;2023-08-20T03:26:15;9.02;;;8.07;;
3613;SDS011;1821;50.936;6.854;2023-08-20T03:26:57;8.60;;;7.30;;
3613;SDS011;1821;50.936;6.854;2023-08-20T03:27:39;10.15;;;8.20;;
3613;SDS011;1821;50.936;6.854;2023-08-20T03:28:22;9.55;;;8.55;;
3613;SDS011;1821;50.936;6.854;2023-08-20T03:29:06;10.10;;;8.02;;
3613;SDS011;1821;50.936;6.854;2023-08-20T03:29:48;10.07;;;7.90;;
3613;SDS011;1821;50.936;6.854;2023-08-20T03:30:30;10.55;;;7.95;;
3613;SDS011;1821;50.936;6.854;2023-08-20T03:31:12;10.70;;;8.27;;
3613;SDS011;1821;50.936;6.854;2023-08-20T03:31:54;12.77;;;8.23;;
3613;SDS011;1821;50.936;6.854;2023-08-20T03:32:36;10.15;;;8.48;;
3613;SDS011;1821;50.936;6.854;2023-08-20T03:33:19;9.25;;;8.20;;
3613;SDS011;1821;50.936;6.854;2023-08-20T03:34:01;10.40;;;8.55;;
3613;SDS011;1821;50.936;6.854;2023-08-20T03:34:43;12.35;;;8.75;;
3613;SDS011;1821;50.936;6.854;2023-08-20T03:35:25;10.77;;;8.07;;
3613;SDS011;1821;50.936;6.854;2023-08-20T03:36:07;10.73;;;8.15;;
3613;SDS011;1821;50.936;6.854;2023-08-20T03:36:49;9.93;;;8.88;;
3613;SDS011;1821;50.936;6.854;2023-08-20T03:37:31;9.52;;;7.90;;
3613;SDS011;1821;50.936;6.854;2023-08-20T03:38:14;11.15;;;8.38;;
3613;SDS011;1821;50.936;6.854;2023-08-20T03:38:56;10.32;;;8.52;;
3613;SDS011;1821;50.936;6.854;2023-08-20T03:39:38;10.53;;;8.50;;
3613;SDS011;1821;50.936;6.854;2023-08-20T03:40:20;10.27;;;8.18;;
3613;SDS011;1821;50.936;6.854;2023-08-20T03:41:02;9.65;;;7.40;;
3613;SDS011;1821;50.936;6.854;2023-08-20T03:41:44;9.45;;;8.18;;
3613;SDS011;1821;50.936;6.854;2023-08-20T03:42:26;9.88;;;8.30;;
3613;SDS011;1821;50.936;6.854;2023-08-20T03:43:08;15.80;;;8.95;;
3613;SDS011;1821;50.936;6.854;2023-08-20T03:43:50;12.90;;;8.80;;
3613;SDS011;1821;50.936;6.854;2023-08-20T03:44:32;11.77;;;8.95;;
3613;SDS011;1821;50.936;6.854;2023-08-20T03:45:14;11.75;;;9.13;;
3613;SDS011;1821;50.936;6.854;2023-08-20T03:45:56;12.00;;;8.80;;
3613;SDS011;1821;50.936;6.854;2023-08-20T03:46:38;10.43;;;9.30;;
3613;SDS011;1821;50.936;6.854;2023-08-20T03:47:20;11.05;;;8.82;;
3613;SDS011;1821;50.936;6.854;2023-08-20T03:48:02;13.95;;;9.25;;
3613;SDS011;1821;50.936;6.854;2023-08-20T03:48:44;12.63;;;10.43;;
3613;SDS011;1821;50.936;6.854;2023-08-20T03:49:26;12.60;;;11.30;;
3613;SDS011;1821;50.936;6.854;2023-08-20T03:50:08;12.80;;;11.25;;
3613;SDS011;1821;50.936;6.854;2023-08-20T03:50:53;13.52;;;11.07;;
3613;SDS011;1821;50.936;6.854;2023-08-20T03:51:35;14.98;;;11.15;;
3613;SDS011;1821;50.936;6.854;2023-08-20T03:52:17;17.30;;;11.57;;
3613;SDS011;1821;50.936;6.854;2023-08-20T03:52:59;15.35;;;11.27;;
3613;SDS011;1821;50.936;6.854;2023-08-20T03:53:41;14.30;;;11.15;;
3613;SDS011;1821;50.936;6.854;2023-08-20T03:54:23;13.98;;;12.10;;
3613;SDS011;1821;50.936;6.854;2023-08-20T03:55:05;13.90;;;11.93;;
3613;SDS011;1821;50.936;6.854;2023-08-20T03:55:48;14.73;;;12.25;;
3613;SDS011;1821;50.936;6.854;2023-08-20T03:56:30;14.85;;;12.70;;
3613;SDS011;1821;50.936;6.854;2023-08-20T03:57:12;15.00;;;13.38;;
3613;SDS011;1821;50.936;6.854;2023-08-20T03:57:54;16.73;;;14.00;;
3613;SDS011;1821;50.936;6.854;2023-08-20T03:58:36;17.70;;;13.53;;
3613;SDS011;1821;50.936;6.854;2023-08-20T03:59:18;16.92;;;13.20;;
3613;SDS011;1821;50.936;6.854;2023-08-20T04:00:03;18.02;;;14.48;;
3613;SDS011;1821;50.936;6.854;2023-08-20T04:00:45;16.40;;;14.70;;
3613;SDS011;1821;50.936;6.854;2023-08-20T04:01:27;15.60;;;13.90;;
3613;SDS011;1821;50.936;6.854;2023-08-20T04:02:09;17.30;;;14.02;;
3613;SDS011;1821;50.936;6.854;2023-08-20T04:02:51;15.40;;;12.38;;
3613;SDS011;1821;50.936;6.854;2023-08-20T04:03:33;17.02;;;13.10;;
3613;SDS011;1821;50.936;6.854;2023-08-20T04:04:15;16.48;;;13.13;;
3613;SDS011;1821;50.936;6.854;2023-08-20T04:04:57;15.00;;;13.40;;
3613;SDS011;1821;50.936;6.854;2023-08-20T04:05:39;18.52;;;14.50;;
3613;SDS011;1821;50.936;6.854;2023-08-20T04:06:21;18.13;;;14.57;;
3613;SDS011;1821;50.936;6.854;2023-08-20T04:07:03;18.00;;;14.75;;
3613;SDS011;1821;50.936;6.854;2023-08-20T04:07:45;17.48;;;14.13;;
3613;SDS011;1821;50.936;6.854;2023-08-20T04:08:28;18.35;;;14.70;;
3613;SDS011;1821;50.936;6.854;2023-08-20T04:09:10;17.50;;;13.77;;
3613;SDS011;1821;50.936;6.854;2023-08-20T04:09:52;17.80;;;13.25;;
3613;SDS011;1821;50.936;6.854;2023-08-20T04:10:34;20.17;;;13.63;;
3613;SDS011;1821;50.936;6.854;2023-08-20T04:11:17;16.83;;;14.20;;
3613;SDS011;1821;50.936;6.854;2023-08-20T04:11:59;20.20;;;14.20;;
3613;SDS011;1821;50.936;6.854;2023-08-20T04:12:41;19.75;;;14.40;;
3613;SDS011;1821;50.936;6.854;2023-08-20T04:13:23;20.67;;;15.15;;
3613;SDS011;1821;50.936;6.854;2023-08-20T04:14:05;16.88;;;14.13;;
3613;SDS011;1821;50.936;6.854;2023-08-20T04:14:47;16.33;;;13.40;;
3613;SDS011;1821;50.936;6.854;2023-08-20T04:15:29;15.40;;;12.63;;
3613;SDS011;1821;50.936;6.854;2023-08-20T04:16:12;19.70;;;14.38;;
3613;SDS011;1821;50.936;6.854;2023-08-20T04:16:55;18.33;;;15.90;;
3613;SDS011;1821;50.936;6.854;2023-08-20T04:17:37;19.05;;;15.77;;
3613;SDS011;1821;50.936;6.854;2023-08-20T04:18:19;19.13;;;15.18;;
3613;SDS011;1821;50.936;6.854;2023-08-20T04:19:01;16.58;;;14.68;;
3613;SDS011;1821;50.936;6.854;2023-08-20T04:19:43;16.38;;;14.13;;
3613;SDS011;1821;50.936;6.854;2023-08-20T04:20:25;18.75;;;15.65;;
3613;SDS011;1821;50.936;6.854;2023-08-20T04:21:07;20.45;;;16.40;;
3613;SDS011;1821;50.936;6.854;2023-08-20T04:21:49;19.95;;;15.73;;
3613;SDS011;1821;50.936;6.854;2023-08-20T04:22:32;18.55;;;15.60;;
3613;SDS011;1821;50.936;6.854;2023-08-20T04:23:14;19.58;;;16.25;;
3613;SDS011;1821;50.936;6.854;2023-08-20T04:23:56;16.90;;;15.10;;
3613;SDS011;1821;50.936;6.854;2023-08-20T04:24:38;17.65;;;15.50;;
3613;SDS011;1821;50.936;6.854;2023-08-20T04:25:20;19.48;;;15.60;;
3613;SDS011;1821;50.936;6.854;2023-08-20T04:26:02;20.83;;;16.30;;
3613;SDS011;1821;50.936;6.854;2023-08-20T04:26:44;19.90;;;16.15;;
3613;SDS011;1821;50.936;6.854;2023-08-20T04:27:26;18.85;;;16.00;;
3613;SDS011;1821;50.936;6.854;2023-08-20T04:28:08;20.42;;;15.48;;
3613;SDS011;1821;50.936;6.854;2023-08-20T04:28:50;22.55;;;16.13;;
3613;SDS011;1821;50.936;6.854;2023-08-20T04:29:32;19.30;;;15.80;;
3613;SDS011;1821;50.936;6.854;2023-08-20T04:30:15;20.50;;;15.90;;
3613;SDS011;1821;50.936;6.854;2023-08-20T04:30:59;18.40;;;16.50;;
3613;SDS011;1821;50.936;6.854;2023-08-20T04:31:42;21.40;;;16.77;;
3613;SDS011;1821;50.936;6.854;2023-08-20T04:32:24;21.83;;;15.50;;